Panorama City, CA (91402)

7:43 AM PST on March 02, 2015 (GMT -0800)
Valley Glen - Hacienda | Change Station
CLOSE
Current Station
Personal Weather Station
Location: Los Angeles, CA
Elevation: 709 ft
Nearby Weather Stations

Elev 709 ft 34.18 °N, 118.42 °W | Updated 1 second ago

Mostly Cloudy
Mostly Cloudy
46.7 °F
Feels Like 47 °F
N
0.0
Wind Variable Wind from SE
Gusts 2.0 mph

Today
High -- | Low -- °F
--% Chance of Precip.
Yesterday
High -- | Low -- °F
Precip. -- in
6:21 AM 5:50 PM
Waxing Gibbous, 92% visible
Pressure 29.90 in
Visibility 10.0 miles
Clouds Mostly Cloudy 3800 ft
Windchill 47 °F
Dew Point 46 °F
Humidity 97%
Rainfall 0.00 in
Snow Depth Not available.
UV 0 out of 12
Pollen 7.80 out of 12
Air Quality Not available.
Flu Activity Not available.
METAR KVNY 021451Z 01003KT 10SM BKN038 07/06 A2990 RMK AO2 SLP125 T00670061 53007

More Conditions Fewer Conditions

Pressure 29.90 in
Visibility 10.0 miles
Clouds Mostly Cloudy 3800 ft
Windchill 47 °F
Dew Point 46 °F
Humidity 97%
Rainfall 0.00 in
Snow Depth Not available.
UV 0 out of 12
Pollen 7.80 out of 12
Air Quality Not available.
Flu Activity Not available.
METAR KVNY 021451Z 01003KT 10SM BKN038 07/06 A2990 RMK AO2 SLP125 T00670061 53007

More Conditions Fewer Conditions

10-Day Weather Forecast

Almanac

Astronomy

Mar. 02, 2015 Rise Set
Actual Time
Civil Twilight
Nautical Twilight
Astronomical Twilight
Moon
Length of Visible Light
Length of Day
Tomorrow will be .
, % of the Moon is Illuminated

Today's Extremes

State Highs State Lows

Community

WunderPhotos

Upload Photos

1,801,823 photos uploaded!

WunderBlogs® & News

Nearby

Air Quality

  Air Quality AQ Index Pollutant
Not available.

Snow Depth

Station Depth Elevation

Earthquake Activity

City Distance Mag. Time & Date
Minimum magnitude displayed is 2.5.

Coastal Water Temperatures

Place Temperature

Nearby Weather Stations